Time;durP1;ratioP1;P1;durP2;ratioP2;P2;SDS_P1;SDS_P2;PMS_P1;PMS_P2;Temp;Humidity;BMP_temperature;BMP_pressure;BME280_temperature;BME280_humidity;BME280_pressure;Samples;Min_cycle;Max_cycle;Signal;HPM_P1;HPM_P2
2022/04/19 00:00:21;;;;;;;2.90;2.47;;;10.10;61.30;;;;;;4982205;28;20461;-42
2022/04/19 00:02:48;;;;;;;2.63;2.40;;;10.10;61.30;;;;;;4980903;28;20477;-43
2022/04/19 00:05:14;;;;;;;3.67;3.10;;;10.00;61.60;;;;;;4982286;28;20462;-42
2022/04/19 00:07:42;;;;;;;3.40;3.00;;;10.00;61.60;;;;;;4979327;28;20810;-43
2022/04/19 00:10:09;;;;;;;3.80;3.00;;;10.00;61.70;;;;;;4982612;28;20485;-43
2022/04/19 00:12:36;;;;;;;3.20;2.90;;;10.00;61.90;;;;;;4981227;28;20841;-43
2022/04/19 00:15:04;;;;;;;4.00;3.20;;;10.00;62.00;;;;;;4983304;28;20989;-43
2022/04/19 00:17:31;;;;;;;3.37;2.87;;;10.00;62.00;;;;;;4985380;28;20982;-42
2022/04/19 00:19:57;;;;;;;5.60;3.30;;;10.00;61.90;;;;;;4986122;28;20549;-43
2022/04/19 00:22:24;;;;;;;4.27;3.33;;;9.90;62.30;;;;;;4985342;28;21275;-43
2022/04/19 00:24:51;;;;;;;3.43;2.33;;;9.90;62.40;;;;;;4979753;28;20691;-42
2022/04/19 00:27:17;;;;;;;3.73;3.37;;;9.90;62.80;;;;;;4984876;28;20549;-42
2022/04/19 00:29:47;;;;;;;3.87;2.60;;;9.90;62.50;;;;;;4985188;28;21048;-42
2022/04/19 00:32:15;;;;;;;4.00;2.80;;;9.90;62.40;;;;;;4984916;28;20479;-43
2022/04/19 00:34:41;;;;;;;3.00;2.70;;;9.90;62.30;;;;;;4984906;28;20478;-42
2022/04/19 00:37:08;;;;;;;3.53;2.70;;;9.80;62.40;;;;;;4972936;28;20459;-42
2022/04/19 00:39:35;;;;;;;3.20;2.50;;;9.80;62.20;;;;;;4984332;28;20747;-42
2022/04/19 00:42:02;;;;;;;2.70;2.50;;;9.80;62.50;;;;;;4987677;28;20939;-43
2022/04/19 00:44:28;;;;;;;4.33;2.90;;;9.70;62.40;;;;;;4986962;28;20476;-43
2022/04/19 00:46:55;;;;;;;3.37;2.90;;;9.70;62.30;;;;;;4985911;28;20462;-43
2022/04/19 00:49:22;;;;;;;3.60;2.50;;;9.70;62.40;;;;;;4985366;28;20981;-43
2022/04/19 00:51:48;;;;;;;2.87;2.60;;;9.60;62.40;;;;;;4980878;28;20476;-42
2022/04/19 00:54:17;;;;;;;3.10;2.83;;;9.60;62.50;;;;;;4981462;28;20469;-42
2022/04/19 00:56:45;;;;;;;2.37;2.17;;;9.50;62.60;;;;;;4973435;28;20458;-42
2022/04/19 00:59:11;;;;;;;3.00;2.60;;;9.50;63.00;;;;;;4984683;28;20460;-42
2022/04/19 01:01:38;;;;;;;2.90;2.70;;;9.50;63.30;;;;;;4982664;28;20466;-42
2022/04/19 01:04:05;;;;;;;2.90;2.60;;;9.40;63.10;;;;;;4981687;28;20473;-42
2022/04/19 01:06:32;;;;;;;4.90;2.67;;;9.40;63.30;;;;;;4981927;28;20916;-42
2022/04/19 01:09:00;;;;;;;3.30;3.00;;;9.40;63.60;;;;;;4979511;28;20987;-42
2022/04/19 01:14:15;;;;;;;4.57;2.70;;;9.30;64.40;;;;;;4962888;28;20461;-43
2022/04/19 01:16:42;;;;;;;3.10;2.80;;;9.30;63.90;;;;;;4982594;28;20509;-43
2022/04/19 01:19:15;;;;;;;6.10;2.90;;;9.20;64.40;;;;;;4984668;28;21071;-43
2022/04/19 01:21:49;;;;;;;3.83;2.83;;;9.20;64.00;;;;;;4962502;28;20995;-43
2022/04/19 01:24:19;;;;;;;5.40;2.80;;;9.10;64.20;;;;;;4984865;28;20464;-42
2022/04/19 01:26:46;;;;;;;2.90;2.37;;;9.10;64.40;;;;;;4981226;28;20537;-43
2022/04/19 01:29:15;;;;;;;3.23;2.93;;;9.10;64.60;;;;;;4961987;28;20476;-43
2022/04/19 01:31:45;;;;;;;2.67;2.47;;;9.00;64.70;;;;;;4985663;28;20958;-43
2022/04/19 01:34:12;;;;;;;3.00;2.70;;;9.00;64.70;;;;;;4984539;28;20949;-43
2022/04/19 01:36:40;;;;;;;3.50;2.70;;;9.00;65.10;;;;;;4983278;28;20501;-44
2022/04/19 01:39:09;;;;;;;3.07;2.80;;;9.00;65.40;;;;;;4981498;28;20470;-43
2022/04/19 01:41:38;;;;;;;3.57;3.00;;;9.00;65.60;;;;;;4979989;28;20469;-43
2022/04/19 01:44:08;;;;;;;2.73;2.50;;;8.90;65.50;;;;;;4982135;28;20474;-42
2022/04/19 01:46:35;;;;;;;3.00;2.73;;;8.90;65.50;;;;;;4986594;28;20469;-43
2022/04/19 01:49:04;;;;;;;3.87;3.33;;;8.90;65.30;;;;;;4984038;28;20465;-44
2022/04/19 01:51:31;;;;;;;3.37;3.07;;;8.80;65.40;;;;;;4981106;28;20489;-42
2022/04/19 01:53:58;;;;;;;3.80;2.60;;;8.80;65.60;;;;;;4963343;28;20982;-42
2022/04/19 01:56:25;;;;;;;3.20;2.90;;;8.80;65.60;;;;;;4961877;28;20488;-42
2022/04/19 01:58:51;;;;;;;3.70;3.10;;;8.80;65.90;;;;;;4983307;28;20810;-42
2022/04/19 02:01:18;;;;;;;3.30;3.00;;;8.70;66.00;;;;;;4983784;28;20808;-43
2022/04/19 02:03:45;;;;;;;3.10;2.80;;;8.70;65.90;;;;;;4978185;28;20814;-42
2022/04/19 02:06:12;;;;;;;3.53;3.10;;;8.70;66.00;;;;;;4969098;28;20466;-43
2022/04/19 02:08:39;;;;;;;3.20;2.83;;;8.60;66.20;;;;;;4964081;28;20471;-43
2022/04/19 02:11:15;;;;;;;4.20;3.37;;;8.60;66.30;;;;;;4983236;28;20493;-44
2022/04/19 02:13:42;;;;;;;4.00;2.90;;;8.60;66.20;;;;;;4984104;28;20456;-42
2022/04/19 02:16:09;;;;;;;3.03;2.63;;;8.50;66.10;;;;;;4982219;28;20481;-43
2022/04/19 02:18:36;;;;;;;2.87;2.60;;;8.50;66.00;;;;;;4982140;28;21000;-43
2022/04/19 02:21:02;;;;;;;3.27;2.73;;;8.40;65.90;;;;;;4966423;28;20469;-42
2022/04/19 02:23:29;;;;;;;4.40;3.13;;;8.40;66.10;;;;;;4986656;28;20701;-42
2022/04/19 02:25:56;;;;;;;3.47;3.17;;;8.40;66.10;;;;;;4983168;28;20556;-42
2022/04/19 02:28:22;;;;;;;4.70;2.87;;;8.30;66.30;;;;;;4980232;28;20984;-43
2022/04/19 02:30:50;;;;;;;2.67;2.47;;;8.30;66.40;;;;;;4984080;28;20887;-43
2022/04/19 02:33:17;;;;;;;3.10;2.77;;;8.30;66.50;;;;;;4983553;28;20499;-42
2022/04/19 02:35:46;;;;;;;3.30;3.00;;;8.20;66.70;;;;;;4983821;28;20485;-42
2022/04/19 02:38:13;;;;;;;4.07;3.67;;;8.20;66.90;;;;;;4978847;28;20454;-43
2022/04/19 02:40:40;;;;;;;4.70;3.40;;;8.20;67.40;;;;;;4982166;28;20465;-41
2022/04/19 02:43:06;;;;;;;3.93;2.70;;;8.20;67.70;;;;;;4979238;28;20810;-41
2022/04/19 02:45:33;;;;;;;4.43;3.40;;;8.20;67.70;;;;;;4984431;28;20505;-41
2022/04/19 02:48:05;;;;;;;3.50;3.20;;;8.20;67.70;;;;;;4983439;28;20463;-41
2022/04/19 02:50:34;;;;;;;3.43;3.13;;;8.20;67.70;;;;;;4979730;28;21039;-41
2022/04/19 02:53:01;;;;;;;3.53;3.23;;;8.20;67.80;;;;;;4984273;28;20457;-41
2022/04/19 02:55:28;;;;;;;5.17;3.10;;;8.10;67.90;;;;;;4981568;28;20495;-41
2022/04/19 02:57:56;;;;;;;3.50;3.20;;;8.10;68.00;;;;;;4983629;28;20480;-41
2022/04/19 03:00:24;;;;;;;2.93;2.70;;;8.10;68.20;;;;;;4972099;28;20480;-41
2022/04/19 03:02:51;;;;;;;3.70;3.40;;;8.10;68.20;;;;;;4964813;28;20465;-41
2022/04/19 03:05:19;;;;;;;3.37;2.80;;;8.10;68.30;;;;;;4962743;28;20985;-41
2022/04/19 03:07:55;;;;;;;3.77;3.07;;;8.10;68.30;;;;;;4988197;28;20477;-41
2022/04/19 03:10:21;;;;;;;3.80;3.50;;;8.10;68.40;;;;;;4980304;28;20498;-41
2022/04/19 03:12:51;;;;;;;3.63;3.30;;;8.10;68.20;;;;;;4981076;28;21179;-41
2022/04/19 03:15:20;;;;;;;4.23;3.10;;;8.10;68.30;;;;;;4982760;28;20462;-41
2022/04/19 03:17:47;;;;;;;3.03;2.80;;;8.10;68.40;;;;;;4962599;28;20459;-41
2022/04/19 03:20:14;;;;;;;3.47;2.63;;;8.00;68.40;;;;;;4982693;28;20468;-40
2022/04/19 03:28:12;;;;;;;2.87;2.63;;;8.00;68.30;;;;;;4978784;28;20827;-41
2022/04/19 03:30:39;;;;;;;3.60;3.30;;;8.00;68.20;;;;;;4979469;28;20481;-41
2022/04/19 03:33:06;;;;;;;4.13;3.40;;;8.00;68.40;;;;;;4961187;28;21026;-41
2022/04/19 03:35:36;;;;;;;4.30;3.50;;;7.90;68.30;;;;;;4985192;28;20465;-41
2022/04/19 03:38:07;;;;;;;3.90;3.47;;;7.90;68.50;;;;;;4982603;28;20465;-41
2022/04/19 03:40:34;;;;;;;5.43;3.60;;;7.90;68.60;;;;;;4979857;28;20454;-41
2022/04/19 03:43:00;;;;;;;4.00;3.60;;;7.90;68.40;;;;;;4980051;28;20572;-41
2022/04/19 03:45:27;;;;;;;3.70;3.40;;;7.80;68.30;;;;;;4966376;28;20980;-41
2022/04/19 03:47:54;;;;;;;5.00;3.90;;;7.80;68.40;;;;;;4982371;28;20462;-41
2022/04/19 03:50:20;;;;;;;4.60;3.90;;;7.80;68.50;;;;;;4981395;28;20461;-41
2022/04/19 03:52:50;;;;;;;5.43;3.57;;;7.80;68.50;;;;;;4979962;28;20461;-41
2022/04/19 03:55:17;;;;;;;5.13;3.90;;;7.70;68.30;;;;;;4978087;28;20463;-41
2022/04/19 03:57:43;;;;;;;4.03;3.33;;;7.70;68.40;;;;;;4982510;28;20457;-40
2022/04/19 04:00:10;;;;;;;4.50;3.23;;;7.70;68.60;;;;;;4980497;28;20461;-41
2022/04/19 04:02:37;;;;;;;4.47;3.10;;;7.60;68.60;;;;;;4981519;28;20457;-40
2022/04/19 04:05:05;;;;;;;6.87;3.07;;;7.60;68.60;;;;;;4970696;28;20469;-40
2022/04/19 04:07:33;;;;;;;3.67;3.23;;;7.60;68.70;;;;;;4975426;28;20458;-40
2022/04/19 04:10:00;;;;;;;3.73;3.20;;;7.60;69.10;;;;;;4984157;28;20472;-41
2022/04/19 04:12:26;;;;;;;3.60;3.30;;;7.60;69.00;;;;;;4978124;28;20494;-41
2022/04/19 04:14:53;;;;;;;4.73;3.63;;;7.50;69.00;;;;;;4982390;28;20465;-41
2022/04/19 04:17:20;;;;;;;3.77;2.73;;;7.50;69.10;;;;;;4981262;28;20458;-41
2022/04/19 04:19:49;;;;;;;4.87;2.60;;;7.50;69.20;;;;;;4977350;28;20459;-41
2022/04/19 04:22:16;;;;;;;7.60;4.40;;;7.50;69.40;;;;;;4982123;28;20473;-41
2022/04/19 04:24:42;;;;;;;4.43;2.63;;;7.50;69.40;;;;;;4978969;28;20923;-40
2022/04/19 04:27:09;;;;;;;3.83;3.43;;;7.50;69.60;;;;;;4981875;28;20895;-40
2022/04/19 04:29:36;;;;;;;3.60;3.30;;;7.50;69.40;;;;;;4982977;28;20961;-40
2022/04/19 04:32:04;;;;;;;4.50;3.40;;;7.40;69.60;;;;;;4979090;28;21061;-41
2022/04/19 04:34:31;;;;;;;3.30;2.77;;;7.40;69.50;;;;;;4979139;28;20476;-41
2022/04/19 04:36:57;;;;;;;3.53;3.20;;;7.40;69.50;;;;;;4980378;28;20950;-41
2022/04/19 04:39:24;;;;;;;3.10;2.80;;;7.40;69.50;;;;;;4979494;28;20549;-41
2022/04/19 04:41:51;;;;;;;3.90;3.10;;;7.40;69.50;;;;;;4979916;28;20462;-41
2022/04/19 04:44:18;;;;;;;2.60;2.40;;;7.40;69.70;;;;;;4981520;28;20464;-41
2022/04/19 04:49:36;;;;;;;3.67;3.30;;;7.40;69.70;;;;;;4977719;28;20474;-41
2022/04/19 04:52:04;;;;;;;3.43;3.13;;;7.40;69.80;;;;;;4979746;28;20499;-42
2022/04/19 04:54:37;;;;;;;3.33;3.03;;;7.40;69.80;;;;;;4978309;28;20471;-41
2022/04/19 04:57:04;;;;;;;4.53;3.30;;;7.40;69.80;;;;;;4977887;28;20454;-40
2022/04/19 04:59:32;;;;;;;6.50;3.00;;;7.40;69.90;;;;;;4978778;28;20461;-41
2022/04/19 05:01:59;;;;;;;4.93;3.27;;;7.40;69.80;;;;;;4967090;28;20469;-41
2022/04/19 05:04:27;;;;;;;2.77;2.57;;;7.40;70.00;;;;;;4982487;28;20476;-41
2022/04/19 05:06:53;;;;;;;5.93;3.17;;;7.40;69.90;;;;;;4981545;28;20548;-40
2022/04/19 05:09:20;;;;;;;3.90;2.97;;;7.40;70.10;;;;;;4981110;28;20465;-41
2022/04/19 05:11:50;;;;;;;3.37;3.07;;;7.40;69.90;;;;;;4982442;28;20502;-40
2022/04/19 05:14:17;;;;;;;6.53;2.93;;;7.40;70.00;;;;;;4980733;28;20842;-41
2022/04/19 05:16:43;;;;;;;3.67;3.07;;;7.40;69.80;;;;;;4980773;28;20468;-40
2022/04/19 05:19:11;;;;;;;5.80;3.63;;;7.50;70.00;;;;;;4983079;28;20955;-40
2022/04/19 05:21:44;;;;;;;4.00;3.60;;;7.50;69.80;;;;;;4981883;28;20548;-40
2022/04/19 05:24:10;;;;;;;4.13;3.73;;;7.50;69.90;;;;;;4982020;28;20477;-41
2022/04/19 05:26:37;;;;;;;8.57;3.60;;;7.50;69.90;;;;;;4980360;28;20470;-41
2022/04/19 05:29:04;;;;;;;3.30;3.00;;;7.50;69.90;;;;;;4979307;28;20465;-40
2022/04/19 05:31:31;;;;;;;2.73;2.40;;;7.50;70.30;;;;;;4983205;28;20793;-41
2022/04/19 05:34:00;;;;;;;3.20;2.90;;;7.60;69.90;;;;;;4984702;28;20461;-41
2022/04/19 05:36:27;;;;;;;3.50;3.20;;;7.60;69.80;;;;;;4965831;28;20972;-40
2022/04/19 05:38:54;;;;;;;4.13;2.97;;;7.60;69.80;;;;;;4982835;28;20834;-40
2022/04/19 05:41:21;;;;;;;4.23;3.80;;;7.70;70.00;;;;;;4981678;28;20466;-40
2022/04/19 05:43:49;;;;;;;3.20;3.00;;;7.70;70.00;;;;;;4981983;28;20486;-40
2022/04/19 05:46:17;;;;;;;3.37;3.07;;;7.70;70.20;;;;;;4982265;28;20474;-41
2022/04/19 05:48:45;;;;;;;3.77;2.87;;;7.80;70.10;;;;;;4970821;28;20496;-43
2022/04/19 05:51:12;;;;;;;4.03;3.60;;;7.80;70.00;;;;;;4981936;28;20493;-43
2022/04/19 05:53:39;;;;;;;8.07;3.70;;;7.90;70.10;;;;;;4976023;28;20547;-42
2022/04/19 05:56:06;;;;;;;6.23;3.70;;;7.90;70.30;;;;;;4964266;28;20462;-43
2022/04/19 05:58:33;;;;;;;3.87;3.50;;;8.00;70.20;;;;;;4983075;28;20439;-43
2022/04/19 06:01:01;;;;;;;4.30;3.90;;;8.10;69.90;;;;;;4981898;28;20684;-43
2022/04/19 06:06:14;;;;;;;3.80;3.50;;;8.20;69.20;;;;;;4980113;28;20465;-42
2022/04/19 06:08:42;;;;;;;5.90;4.43;;;8.30;69.40;;;;;;4978439;28;20520;-43
2022/04/19 06:11:12;;;;;;;4.70;3.90;;;8.40;69.30;;;;;;4982223;28;20486;-42
2022/04/19 06:13:40;;;;;;;3.93;3.50;;;8.50;68.90;;;;;;4983464;28;20474;-42
2022/04/19 06:16:08;;;;;;;8.27;3.40;;;8.50;68.80;;;;;;4981163;28;20489;-42
2022/04/19 06:18:35;;;;;;;3.03;2.83;;;8.60;68.70;;;;;;4966581;28;20458;-43
2022/04/19 06:21:04;;;;;;;4.83;3.57;;;8.70;68.60;;;;;;4979944;28;21017;-45
2022/04/19 06:23:34;;;;;;;4.63;3.57;;;8.80;68.60;;;;;;4985698;28;20458;-46
2022/04/19 06:26:01;;;;;;;3.40;3.10;;;8.90;68.30;;;;;;4986054;28;20556;-46
2022/04/19 06:28:28;;;;;;;6.83;4.60;;;9.00;67.40;;;;;;4986969;28;20458;-45
2022/04/19 06:30:55;;;;;;;9.03;3.80;;;9.10;67.10;;;;;;4989591;28;20478;-45
2022/04/19 06:33:21;;;;;;;3.70;3.40;;;9.20;67.20;;;;;;4991643;28;20468;-46
2022/04/19 06:35:48;;;;;;;5.50;3.80;;;9.30;66.90;;;;;;4993237;28;20965;-45
2022/04/19 06:38:15;;;;;;;4.97;3.80;;;9.40;66.00;;;;;;4988178;28;21025;-45
2022/04/19 06:40:42;;;;;;;4.57;3.73;;;9.50;64.80;;;;;;4992273;28;20445;-45
2022/04/19 06:43:09;;;;;;;6.03;4.77;;;9.60;64.40;;;;;;4984713;28;20545;-46
2022/04/19 06:45:36;;;;;;;7.17;3.90;;;9.60;64.60;;;;;;4989587;28;20501;-46
2022/04/19 06:48:04;;;;;;;4.83;4.40;;;9.70;64.00;;;;;;4985631;28;20473;-46
2022/04/19 06:50:30;;;;;;;4.47;3.20;;;9.70;63.30;;;;;;4988277;28;20470;-46
2022/04/19 06:52:57;;;;;;;4.23;3.60;;;9.90;61.50;;;;;;4990269;28;20498;-46
2022/04/19 06:55:26;;;;;;;3.43;3.13;;;10.00;61.90;;;;;;4988580;28;20493;-46
2022/04/19 06:57:53;;;;;;;5.47;4.00;;;10.00;62.30;;;;;;4991191;28;20466;-46
2022/04/19 07:00:21;;;;;;;6.30;3.70;;;10.10;62.00;;;;;;4990058;28;20510;-46
2022/04/19 07:02:48;;;;;;;6.73;4.37;;;10.20;62.10;;;;;;4987234;28;20492;-46
2022/04/19 07:05:15;;;;;;;4.07;3.67;;;10.30;62.20;;;;;;4985550;28;20475;-46
2022/04/19 07:07:43;;;;;;;6.33;3.70;;;10.40;61.90;;;;;;4985576;28;20965;-46
2022/04/19 07:10:11;;;;;;;6.10;3.83;;;10.50;61.30;;;;;;4988903;28;20554;-46
2022/04/19 07:12:45;;;;;;;4.40;4.00;;;10.70;61.00;;;;;;4970428;28;20483;-46
2022/04/19 07:15:12;;;;;;;5.00;4.50;;;10.80;61.20;;;;;;4966931;28;20522;-46
2022/04/19 07:17:43;;;;;;;5.80;3.43;;;11.00;58.80;;;;;;4984750;28;20457;-46
2022/04/19 07:28:27;;;;;;;5.07;3.97;;;11.80;56.80;;;;;;4987101;28;21009;-46
2022/04/19 07:30:54;;;;;;;4.80;4.03;;;12.10;55.50;;;;;;4989850;28;21012;-46
2022/04/19 07:33:21;;;;;;;5.93;4.60;;;12.30;52.90;;;;;;4986137;28;20502;-45
2022/04/19 07:35:50;;;;;;;5.27;4.77;;;12.50;53.50;;;;;;4991129;28;20479;-45
2022/04/19 07:38:17;;;;;;;5.90;4.03;;;12.80;51.80;;;;;;4987869;28;20459;-45
2022/04/19 07:40:45;;;;;;;5.43;4.80;;;13.10;51.90;;;;;;4987593;28;20459;-46
2022/04/19 07:43:11;;;;;;;5.33;4.77;;;13.30;50.80;;;;;;4989431;28;20542;-45
2022/04/19 07:45:38;;;;;;;5.57;4.70;;;13.50;51.50;;;;;;4989454;28;20493;-45
2022/04/19 07:48:06;;;;;;;6.53;5.13;;;13.70;51.50;;;;;;4978454;28;20462;-45
2022/04/19 07:50:39;;;;;;;8.10;4.73;;;14.00;51.90;;;;;;4989683;28;20460;-45
2022/04/19 07:53:06;;;;;;;11.93;4.77;;;14.20;49.70;;;;;;4989870;28;20494;-45
2022/04/19 07:55:32;;;;;;;6.13;4.50;;;14.30;48.40;;;;;;4993091;28;20443;-45
2022/04/19 07:57:59;;;;;;;6.93;4.83;;;14.60;48.60;;;;;;4986784;28;20446;-45
2022/04/19 08:00:27;;;;;;;6.70;5.00;;;14.80;48.80;;;;;;4970883;28;20463;-45
2022/04/19 08:02:58;;;;;;;8.77;5.80;;;15.00;48.70;;;;;;4989115;28;20466;-45
2022/04/19 08:05:25;;;;;;;6.93;4.97;;;15.20;48.60;;;;;;4986309;28;20451;-45
2022/04/19 08:07:52;;;;;;;8.50;5.23;;;15.40;48.20;;;;;;4979076;28;20473;-45
2022/04/19 08:10:20;;;;;;;9.40;5.33;;;15.60;48.00;;;;;;4980636;28;20474;-46
2022/04/19 08:12:47;;;;;;;8.63;6.00;;;15.90;47.00;;;;;;4982288;28;21022;-45
2022/04/19 08:15:14;;;;;;;7.73;6.87;;;16.00;46.00;;;;;;4981885;28;20847;-46
2022/04/19 08:17:41;;;;;;;6.27;5.63;;;16.20;46.00;;;;;;4986672;28;21003;-45
2022/04/19 08:20:08;;;;;;;6.63;5.47;;;16.30;46.00;;;;;;4987621;28;20490;-46
2022/04/19 08:22:35;;;;;;;8.33;5.73;;;16.50;45.90;;;;;;4981760;28;20483;-46
2022/04/19 08:25:03;;;;;;;10.00;6.37;;;16.80;45.20;;;;;;4984069;28;20460;-46
2022/04/19 08:27:30;;;;;;;7.17;5.73;;;17.00;44.90;;;;;;4977743;28;20477;-46
2022/04/19 08:29:57;;;;;;;7.23;5.80;;;17.20;44.40;;;;;;4968423;28;20470;-46
2022/04/19 08:32:23;;;;;;;8.83;6.27;;;17.40;44.00;;;;;;4969155;28;20496;-46
2022/04/19 08:34:50;;;;;;;8.73;5.83;;;17.60;44.70;;;;;;4964553;28;20468;-46
2022/04/19 08:37:19;;;;;;;10.47;5.83;;;17.80;43.90;;;;;;4982159;28;20453;-46
2022/04/19 08:39:46;;;;;;;8.33;6.97;;;17.90;42.90;;;;;;4985354;28;20464;-46
2022/04/19 08:42:13;;;;;;;5.50;5.00;;;18.10;42.30;;;;;;4984255;28;20466;-46
2022/04/19 08:44:40;;;;;;;11.40;6.40;;;18.30;42.40;;;;;;4987511;28;20468;-46
2022/04/19 08:47:06;;;;;;;7.30;6.10;;;18.50;40.80;;;;;;4987322;28;20466;-46
2022/04/19 08:49:41;;;;;;;12.00;6.10;;;18.60;40.80;;;;;;4986670;28;20860;-46
2022/04/19 08:52:09;;;;;;;7.13;5.97;;;18.80;40.90;;;;;;4983532;28;20924;-46
2022/04/19 08:57:30;;;;;;;7.97;6.27;;;19.30;41.10;;;;;;4983670;28;20477;-46
2022/04/19 08:59:58;;;;;;;7.60;5.60;;;19.60;40.90;;;;;;4984440;28;20475;-46
2022/04/19 09:02:29;;;;;;;7.33;5.77;;;19.80;40.60;;;;;;4985471;28;20459;-46
2022/04/19 09:05:32;;;;;;;8.57;6.40;;;20.00;39.50;;;;;;4984052;28;20477;-45
2022/04/19 09:07:59;;;;;;;7.20;5.80;;;20.20;38.40;;;;;;4924252;29;21017;-46
2022/04/19 09:10:30;;;;;;;6.30;4.90;;;20.50;38.60;;;;;;4959480;28;20985;-46
2022/04/19 09:13:05;;;;;;;7.13;6.10;;;20.80;37.10;;;;;;4988872;28;20626;-46
2022/04/19 09:15:36;;;;;;;7.83;5.73;;;21.10;36.60;;;;;;4988200;28;20557;-46
2022/04/19 09:18:04;;;;;;;7.93;5.60;;;21.30;35.10;;;;;;4988102;28;20527;-46
2022/04/19 09:20:31;;;;;;;10.80;6.17;;;21.50;34.80;;;;;;4989294;28;20471;-46
2022/04/19 09:23:10;;;;;;;8.73;6.00;;;21.70;32.70;;;;;;4987001;28;20515;-46
2022/04/19 09:25:38;;;;;;;9.37;6.63;;;21.80;33.40;;;;;;4978802;28;21035;-46
2022/04/19 09:28:16;;;;;;;8.90;6.57;;;21.90;32.90;;;;;;4987467;28;20463;-46
2022/04/19 09:30:43;;;;;;;8.77;6.00;;;22.30;32.70;;;;;;4984558;28;20495;-46
2022/04/19 09:33:16;;;;;;;7.53;6.20;;;22.40;31.70;;;;;;4984943;28;20490;-46
2022/04/19 09:35:49;;;;;;;6.93;5.50;;;22.30;31.90;;;;;;4987601;28;20483;-46
2022/04/19 09:38:17;;;;;;;8.00;6.73;;;22.40;32.30;;;;;;4987654;28;21025;-46
2022/04/19 09:40:47;;;;;;;11.83;6.87;;;22.60;32.00;;;;;;4988878;28;20469;-45
2022/04/19 09:43:35;;;;;;;7.93;6.20;;;22.70;31.20;;;;;;4977257;28;20465;-45
2022/04/19 09:46:06;;;;;;;9.93;7.83;;;22.90;30.90;;;;;;4986842;28;20472;-46
2022/04/19 09:48:37;;;;;;;8.70;6.30;;;23.00;30.30;;;;;;4986210;28;21025;-45
2022/04/19 09:51:09;;;;;;;7.70;6.50;;;23.10;30.50;;;;;;4988062;28;20950;-46
2022/04/19 09:53:44;;;;;;;8.50;6.90;;;23.30;29.90;;;;;;4985929;28;21361;-46
2022/04/19 09:56:13;;;;;;;9.60;6.70;;;23.30;30.20;;;;;;4986823;28;20460;-47
2022/04/19 09:59:02;;;;;;;11.10;6.87;;;23.50;30.60;;;;;;4990536;28;20461;-45
2022/04/19 10:09:41;;;;;;;8.67;6.50;;;24.50;31.00;;;;;;4982992;28;20815;-46
2022/04/19 10:12:11;;;;;;;8.00;6.37;;;24.80;30.20;;;;;;4970615;28;20842;-46
2022/04/19 10:14:39;;;;;;;8.33;6.40;;;25.10;30.70;;;;;;4982965;28;20472;-46
2022/04/19 10:17:06;;;;;;;10.23;7.60;;;25.30;29.60;;;;;;4988261;28;21034;-47
2022/04/19 10:19:33;;;;;;;9.57;7.03;;;25.40;28.20;;;;;;4986973;28;20480;-46
2022/04/19 10:22:06;;;;;;;9.90;8.03;;;25.20;28.30;;;;;;4984351;28;20452;-47
2022/04/19 10:24:47;;;;;;;10.90;6.97;;;25.10;28.60;;;;;;4968358;28;20983;-47
2022/04/19 10:27:13;;;;;;;9.37;7.40;;;25.20;28.30;;;;;;4984376;28;20468;-46
2022/04/19 10:29:43;;;;;;;10.60;7.13;;;25.10;28.40;;;;;;4983641;28;20461;-46
2022/04/19 10:32:11;;;;;;;8.77;7.07;;;25.10;28.20;;;;;;4987552;28;20680;-47
2022/04/19 10:34:40;;;;;;;9.43;6.67;;;25.20;28.10;;;;;;4984326;28;20520;-47
2022/04/19 10:37:15;;;;;;;9.23;6.70;;;25.20;27.90;;;;;;4985827;28;20928;-47
2022/04/19 10:39:47;;;;;;;8.67;6.43;;;25.20;27.70;;;;;;4983274;28;20527;-46
2022/04/19 10:42:33;;;;;;;9.43;7.33;;;25.40;28.80;;;;;;4987309;28;20524;-47
2022/04/19 10:45:21;;;;;;;12.97;8.30;;;25.60;28.00;;;;;;4986614;28;20498;-46
2022/04/19 10:47:53;;;;;;;7.07;6.17;;;25.80;27.70;;;;;;4971839;28;20474;-48
2022/04/19 10:50:33;;;;;;;8.73;5.73;;;25.70;27.00;;;;;;4990095;28;20454;-47
2022/04/19 10:53:04;;;;;;;6.87;5.77;;;25.70;26.60;;;;;;4988703;28;20492;-47
2022/04/19 10:55:55;;;;;;;8.50;6.40;;;25.80;27.60;;;;;;4974580;28;20466;-47
2022/04/19 10:58:41;;;;;;;7.43;6.30;;;25.90;27.50;;;;;;4985912;28;20464;-46
2022/04/19 11:01:27;;;;;;;7.30;5.93;;;25.90;28.00;;;;;;4984787;28;20452;-47
2022/04/19 11:03:55;;;;;;;7.93;7.13;;;25.70;26.90;;;;;;4983148;28;20871;-47
2022/04/19 11:06:31;;;;;;;9.77;7.37;;;25.60;27.20;;;;;;4985679;28;20453;-47
2022/04/19 11:09:14;;;;;;;7.93;6.13;;;25.20;27.30;;;;;;4985764;28;20655;-47
2022/04/19 11:12:07;;;;;;;8.03;6.00;;;25.00;28.10;;;;;;4981812;28;20472;-47
2022/04/19 11:14:37;;;;;;;7.83;6.20;;;24.70;28.20;;;;;;4983991;28;20473;-46
2022/04/19 11:17:24;;;;;;;8.10;6.93;;;24.60;29.00;;;;;;4986039;28;20508;-46
2022/04/19 11:20:14;;;;;;;8.30;6.63;;;24.30;29.00;;;;;;4983886;28;20989;-46
2022/04/19 11:22:47;;;;;;;10.10;7.07;;;24.10;29.40;;;;;;4985945;28;20492;-46
2022/04/19 11:25:15;;;;;;;9.23;6.80;;;23.90;30.20;;;;;;4981545;28;20532;-46
2022/04/19 11:27:54;;;;;;;8.00;6.07;;;23.80;31.10;;;;;;4971147;28;20828;-46
2022/04/19 11:30:23;;;;;;;8.63;7.20;;;23.70;31.70;;;;;;4988028;28;20825;-45
2022/04/19 11:32:55;;;;;;;8.60;7.00;;;23.70;30.90;;;;;;4985091;28;20528;-46
2022/04/19 11:35:23;;;;;;;8.63;6.83;;;23.70;30.40;;;;;;4984760;28;20481;-46
2022/04/19 11:37:49;;;;;;;7.90;6.40;;;23.70;30.60;;;;;;4985982;28;20825;-46
2022/04/19 11:48:45;;;;;;;10.67;7.53;;;23.60;31.90;;;;;;4985107;28;20504;-46
2022/04/19 11:51:15;;;;;;;8.00;6.60;;;23.50;30.80;;;;;;4980032;28;21556;-47
2022/04/19 11:53:43;;;;;;;10.03;7.47;;;23.30;31.10;;;;;;4981990;28;20492;-46
2022/04/19 11:56:10;;;;;;;8.70;7.07;;;23.10;30.30;;;;;;4987088;28;20468;-47
2022/04/19 11:58:40;;;;;;;9.97;7.40;;;22.90;31.70;;;;;;4982139;28;20815;-47
2022/04/19 12:01:10;;;;;;;11.27;8.43;;;22.70;32.10;;;;;;4964813;28;20992;-46
2022/04/19 12:03:39;;;;;;;8.80;7.13;;;22.60;32.10;;;;;;4981133;28;20500;-46
2022/04/19 12:06:15;;;;;;;9.10;7.17;;;22.40;31.70;;;;;;4983849;28;21266;-46
2022/04/19 12:08:46;;;;;;;8.83;6.60;;;22.30;33.80;;;;;;4980174;28;20953;-46
2022/04/19 12:11:16;;;;;;;10.07;7.07;;;22.30;33.30;;;;;;4984170;28;20472;-46
2022/04/19 12:13:46;;;;;;;7.53;6.30;;;22.30;32.80;;;;;;4970824;28;20502;-46
2022/04/19 12:16:34;;;;;;;8.40;6.97;;;22.40;32.40;;;;;;4974456;28;20507;-47
2022/04/19 12:19:07;;;;;;;8.50;6.93;;;22.40;32.10;;;;;;4973262;28;20475;-46
2022/04/19 12:21:45;;;;;;;10.77;7.20;;;22.40;32.70;;;;;;4990572;28;20453;-46
2022/04/19 12:24:23;;;;;;;8.63;7.73;;;22.40;32.90;;;;;;4988278;28;20850;-47
2022/04/19 12:27:06;;;;;;;9.03;6.97;;;22.50;32.60;;;;;;4986508;28;20561;-46
2022/04/19 12:29:35;;;;;;;8.93;7.43;;;22.60;32.70;;;;;;4984095;28;20565;-46
2022/04/19 12:32:03;;;;;;;10.13;7.40;;;22.60;32.20;;;;;;4985067;28;20498;-46
2022/04/19 12:34:35;;;;;;;8.67;6.53;;;22.60;32.10;;;;;;4987994;28;20481;-47
2022/04/19 12:37:21;;;;;;;9.20;6.70;;;22.60;32.60;;;;;;4990378;28;20465;-46
2022/04/19 12:39:58;;;;;;;11.33;6.97;;;22.60;34.30;;;;;;4992847;28;20465;-47
2022/04/19 12:42:25;;;;;;;8.30;6.63;;;22.80;35.50;;;;;;4990435;28;20910;-46
2022/04/19 12:45:12;;;;;;;8.33;7.00;;;22.90;31.60;;;;;;4983901;28;20826;-46
2022/04/19 12:47:46;;;;;;;11.80;7.40;;;22.90;32.30;;;;;;4990485;28;20472;-47
2022/04/19 12:50:18;;;;;;;9.20;6.93;;;22.90;31.40;;;;;;4987577;28;20531;-46
2022/04/19 12:52:44;;;;;;;7.40;5.70;;;22.90;32.80;;;;;;4991733;28;20449;-46
2022/04/19 12:55:11;;;;;;;10.13;6.90;;;22.80;32.60;;;;;;4988329;28;20545;-46
2022/04/19 12:57:41;;;;;;;7.97;5.47;;;22.80;32.20;;;;;;4991330;28;20459;-46
2022/04/19 13:00:10;;;;;;;8.43;6.53;;;22.70;32.00;;;;;;4988631;28;21031;-46
2022/04/19 13:02:37;;;;;;;6.50;5.30;;;22.70;32.50;;;;;;4985496;28;20810;-46
2022/04/19 13:05:05;;;;;;;7.90;6.03;;;22.60;32.10;;;;;;4974938;28;20920;-46
2022/04/19 13:13:06;;;;;;;7.63;5.20;;;22.50;33.10;;;;;;4988508;28;20492;-45
2022/04/19 13:15:34;;;;;;;6.50;5.00;;;22.40;32.30;;;;;;4989595;28;20568;-46
2022/04/19 13:18:01;;;;;;;5.50;4.70;;;22.30;32.50;;;;;;4987601;28;20462;-46
2022/04/19 13:20:28;;;;;;;6.03;4.50;;;22.10;32.50;;;;;;4989119;28;20535;-46
2022/04/19 13:22:55;;;;;;;7.17;4.77;;;22.10;32.80;;;;;;4984692;28;20482;-45
2022/04/19 13:25:22;;;;;;;5.33;4.00;;;22.00;32.50;;;;;;4970182;28;21005;-45
2022/04/19 13:27:51;;;;;;;3.87;3.50;;;22.00;34.10;;;;;;4985845;28;20445;-46
2022/04/19 13:30:19;;;;;;;6.83;3.60;;;22.00;33.00;;;;;;4987013;28;20445;-46
2022/04/19 13:32:47;;;;;;;4.70;3.30;;;22.20;33.30;;;;;;4988697;28;20485;-46
2022/04/19 13:35:13;;;;;;;3.53;3.03;;;22.20;32.60;;;;;;4987802;28;20460;-47
2022/04/19 13:40:26;;;;;;;5.00;3.30;;;22.40;33.30;;;;;;4987458;28;20469;-46
2022/04/19 13:42:53;;;;;;;5.50;3.23;;;22.60;32.40;;;;;;4988108;28;20461;-46
2022/04/19 13:45:20;;;;;;;4.30;2.90;;;22.50;32.20;;;;;;4988408;28;21046;-46
2022/04/19 13:47:47;;;;;;;3.87;3.37;;;22.50;32.40;;;;;;4974365;28;20459;-45
2022/04/19 13:50:15;;;;;;;4.53;3.10;;;22.50;32.70;;;;;;4988559;28;20999;-46